Terminal Aerodrome Forecast
Issued by NWS Amarillo, TX

Home | Current Version | Previous Version | Text Only | Print | Product List | Glossary On
Versions: 1 2 3 4 5 6 7 8 9 10 11 12 13 14 15 16 17 18 19 20
000
FTUS44 KAMA 160200 AAA
TAFAMA
TAF AMD
KAMA 160203Z 1602/1624 01008KT P6SM SCT040 OVC120
      TEMPO 1603/1605 OVC015
     FM160500 04006KT P6SM SCT005 OVC015
     FM160800 VRB05KT P6SM OVC006
      TEMPO 1608/1612 2SM BR OVC001
     FM161200 VRB05KT 2SM BR OVC002
     FM161600 18008KT P6SM SCT005 OVC015
     FM162000 18014KT P6SM SCT015 BKN060=

USA.gov is the U.S. government's official web portal to all federal, state and local government web resources and services.